sensor_id;sensor_type;location;lat;lon;timestamp;P1;durP1;ratioP1;P2;durP2;ratioP2
15679;SDS011;15488;48.114;11.532;2023-07-09T00:00:16;7.27;;;6.17;;
15679;SDS011;15488;48.114;11.532;2023-07-09T00:02:44;8.47;;;6.13;;
15679;SDS011;15488;48.114;11.532;2023-07-09T00:05:13;7.80;;;5.63;;
15679;SDS011;15488;48.114;11.532;2023-07-09T00:07:43;8.17;;;6.00;;
15679;SDS011;15488;48.114;11.532;2023-07-09T00:10:15;9.23;;;6.03;;
15679;SDS011;15488;48.114;11.532;2023-07-09T00:12:45;8.00;;;6.30;;
15679;SDS011;15488;48.114;11.532;2023-07-09T00:15:13;7.90;;;5.73;;
15679;SDS011;15488;48.114;11.532;2023-07-09T00:17:43;7.10;;;5.53;;
15679;SDS011;15488;48.114;11.532;2023-07-09T00:20:12;7.33;;;5.30;;
15679;SDS011;15488;48.114;11.532;2023-07-09T00:22:41;8.17;;;6.00;;
15679;SDS011;15488;48.114;11.532;2023-07-09T00:25:18;6.57;;;5.70;;
15679;SDS011;15488;48.114;11.532;2023-07-09T00:27:46;8.00;;;6.10;;
15679;SDS011;15488;48.114;11.532;2023-07-09T00:30:18;6.43;;;5.20;;
15679;SDS011;15488;48.114;11.532;2023-07-09T00:32:48;6.17;;;5.57;;
15679;SDS011;15488;48.114;11.532;2023-07-09T00:35:17;7.40;;;5.47;;
15679;SDS011;15488;48.114;11.532;2023-07-09T00:37:45;6.80;;;5.13;;
15679;SDS011;15488;48.114;11.532;2023-07-09T00:40:17;6.67;;;5.73;;
15679;SDS011;15488;48.114;11.532;2023-07-09T00:42:48;6.70;;;5.40;;
15679;SDS011;15488;48.114;11.532;2023-07-09T00:45:17;7.17;;;5.67;;
15679;SDS011;15488;48.114;11.532;2023-07-09T00:47:53;6.00;;;5.40;;
15679;SDS011;15488;48.114;11.532;2023-07-09T00:50:26;7.53;;;5.60;;
15679;SDS011;15488;48.114;11.532;2023-07-09T00:53:01;6.60;;;5.43;;
15679;SDS011;15488;48.114;11.532;2023-07-09T00:55:34;7.70;;;5.77;;
15679;SDS011;15488;48.114;11.532;2023-07-09T00:58:05;7.20;;;5.30;;
15679;SDS011;15488;48.114;11.532;2023-07-09T01:00:37;5.93;;;5.30;;
15679;SDS011;15488;48.114;11.532;2023-07-09T01:03:11;6.30;;;5.27;;
15679;SDS011;15488;48.114;11.532;2023-07-09T01:05:54;6.33;;;5.57;;
15679;SDS011;15488;48.114;11.532;2023-07-09T01:08:24;6.70;;;5.57;;
15679;SDS011;15488;48.114;11.532;2023-07-09T01:10:53;7.07;;;5.47;;
15679;SDS011;15488;48.114;11.532;2023-07-09T01:13:21;7.67;;;5.13;;
15679;SDS011;15488;48.114;11.532;2023-07-09T01:15:51;6.37;;;5.10;;
15679;SDS011;15488;48.114;11.532;2023-07-09T01:18:19;6.83;;;5.23;;
15679;SDS011;15488;48.114;11.532;2023-07-09T01:20:48;7.40;;;5.50;;
15679;SDS011;15488;48.114;11.532;2023-07-09T01:23:19;6.43;;;5.20;;
15679;SDS011;15488;48.114;11.532;2023-07-09T01:25:50;8.00;;;5.57;;
15679;SDS011;15488;48.114;11.532;2023-07-09T01:28:19;9.23;;;5.33;;
15679;SDS011;15488;48.114;11.532;2023-07-09T01:30:47;8.13;;;5.37;;
15679;SDS011;15488;48.114;11.532;2023-07-09T01:33:19;7.43;;;5.10;;
15679;SDS011;15488;48.114;11.532;2023-07-09T01:35:48;6.30;;;5.23;;
15679;SDS011;15488;48.114;11.532;2023-07-09T01:38:18;6.40;;;5.13;;
15679;SDS011;15488;48.114;11.532;2023-07-09T01:40:46;6.57;;;5.23;;
15679;SDS011;15488;48.114;11.532;2023-07-09T01:43:14;6.03;;;4.77;;
15679;SDS011;15488;48.114;11.532;2023-07-09T01:45:41;5.30;;;4.80;;
15679;SDS011;15488;48.114;11.532;2023-07-09T01:48:09;5.70;;;4.50;;
15679;SDS011;15488;48.114;11.532;2023-07-09T01:50:39;5.30;;;4.80;;
15679;SDS011;15488;48.114;11.532;2023-07-09T01:53:07;6.40;;;4.97;;
15679;SDS011;15488;48.114;11.532;2023-07-09T01:55:36;5.10;;;4.53;;
15679;SDS011;15488;48.114;11.532;2023-07-09T01:58:03;6.03;;;4.67;;
15679;SDS011;15488;48.114;11.532;2023-07-09T02:00:32;5.97;;;4.53;;
15679;SDS011;15488;48.114;11.532;2023-07-09T02:03:00;6.23;;;4.40;;
15679;SDS011;15488;48.114;11.532;2023-07-09T02:05:30;5.03;;;4.40;;
15679;SDS011;15488;48.114;11.532;2023-07-09T02:07:58;5.67;;;4.23;;
15679;SDS011;15488;48.114;11.532;2023-07-09T02:10:26;6.33;;;4.40;;
15679;SDS011;15488;48.114;11.532;2023-07-09T02:12:55;6.47;;;4.50;;
15679;SDS011;15488;48.114;11.532;2023-07-09T02:15:22;5.97;;;4.57;;
15679;SDS011;15488;48.114;11.532;2023-07-09T02:17:50;7.47;;;4.80;;
15679;SDS011;15488;48.114;11.532;2023-07-09T02:20:17;5.17;;;4.30;;
15679;SDS011;15488;48.114;11.532;2023-07-09T02:22:45;6.90;;;4.03;;
15679;SDS011;15488;48.114;11.532;2023-07-09T02:25:13;5.60;;;4.10;;
15679;SDS011;15488;48.114;11.532;2023-07-09T02:27:41;6.50;;;4.50;;
15679;SDS011;15488;48.114;11.532;2023-07-09T02:30:10;5.70;;;4.50;;
15679;SDS011;15488;48.114;11.532;2023-07-09T02:32:38;7.57;;;4.70;;
15679;SDS011;15488;48.114;11.532;2023-07-09T02:35:06;7.10;;;4.43;;
15679;SDS011;15488;48.114;11.532;2023-07-09T02:37:34;5.77;;;4.50;;
15679;SDS011;15488;48.114;11.532;2023-07-09T02:40:02;6.63;;;4.37;;
15679;SDS011;15488;48.114;11.532;2023-07-09T02:42:30;6.10;;;4.10;;
15679;SDS011;15488;48.114;11.532;2023-07-09T02:44:58;6.47;;;4.30;;
15679;SDS011;15488;48.114;11.532;2023-07-09T02:47:26;4.40;;;3.77;;
15679;SDS011;15488;48.114;11.532;2023-07-09T02:49:54;5.60;;;4.40;;
15679;SDS011;15488;48.114;11.532;2023-07-09T02:52:21;5.67;;;4.20;;
15679;SDS011;15488;48.114;11.532;2023-07-09T02:54:49;6.07;;;4.07;;
15679;SDS011;15488;48.114;11.532;2023-07-09T02:57:16;8.87;;;3.90;;
15679;SDS011;15488;48.114;11.532;2023-07-09T02:59:44;6.73;;;4.17;;
15679;SDS011;15488;48.114;11.532;2023-07-09T03:02:11;5.00;;;3.80;;
15679;SDS011;15488;48.114;11.532;2023-07-09T03:04:40;5.37;;;3.90;;
15679;SDS011;15488;48.114;11.532;2023-07-09T03:07:07;6.43;;;4.40;;
15679;SDS011;15488;48.114;11.532;2023-07-09T03:09:35;4.60;;;4.00;;
15679;SDS011;15488;48.114;11.532;2023-07-09T03:12:02;5.53;;;3.57;;
15679;SDS011;15488;48.114;11.532;2023-07-09T03:14:30;5.77;;;4.30;;
15679;SDS011;15488;48.114;11.532;2023-07-09T03:16:58;5.90;;;4.00;;
15679;SDS011;15488;48.114;11.532;2023-07-09T03:19:25;5.07;;;4.07;;
15679;SDS011;15488;48.114;11.532;2023-07-09T03:21:54;5.37;;;4.20;;
15679;SDS011;15488;48.114;11.532;2023-07-09T03:24:22;5.77;;;4.13;;
15679;SDS011;15488;48.114;11.532;2023-07-09T03:26:49;5.03;;;4.33;;
15679;SDS011;15488;48.114;11.532;2023-07-09T03:29:16;7.50;;;4.40;;
15679;SDS011;15488;48.114;11.532;2023-07-09T03:31:44;7.27;;;4.13;;
15679;SDS011;15488;48.114;11.532;2023-07-09T03:34:11;4.93;;;4.20;;
15679;SDS011;15488;48.114;11.532;2023-07-09T03:36:39;5.20;;;4.20;;
15679;SDS011;15488;48.114;11.532;2023-07-09T03:39:09;6.20;;;4.30;;
15679;SDS011;15488;48.114;11.532;2023-07-09T03:41:37;5.90;;;4.37;;
15679;SDS011;15488;48.114;11.532;2023-07-09T03:44:04;6.90;;;4.60;;
15679;SDS011;15488;48.114;11.532;2023-07-09T03:46:32;6.13;;;4.10;;
15679;SDS011;15488;48.114;11.532;2023-07-09T03:48:59;4.40;;;4.00;;
15679;SDS011;15488;48.114;11.532;2023-07-09T03:51:27;6.17;;;4.40;;
15679;SDS011;15488;48.114;11.532;2023-07-09T03:53:54;4.83;;;3.87;;
15679;SDS011;15488;48.114;11.532;2023-07-09T03:56:23;5.00;;;4.27;;
15679;SDS011;15488;48.114;11.532;2023-07-09T03:58:51;6.60;;;4.00;;
15679;SDS011;15488;48.114;11.532;2023-07-09T04:01:18;5.13;;;3.87;;
15679;SDS011;15488;48.114;11.532;2023-07-09T04:03:47;5.63;;;4.20;;
15679;SDS011;15488;48.114;11.532;2023-07-09T04:06:14;5.40;;;4.00;;
15679;SDS011;15488;48.114;11.532;2023-07-09T04:08:41;4.43;;;4.00;;
15679;SDS011;15488;48.114;11.532;2023-07-09T04:11:09;5.53;;;4.40;;
15679;SDS011;15488;48.114;11.532;2023-07-09T04:13:38;6.00;;;4.20;;
15679;SDS011;15488;48.114;11.532;2023-07-09T04:16:05;5.73;;;4.40;;
15679;SDS011;15488;48.114;11.532;2023-07-09T04:18:33;6.37;;;4.30;;
15679;SDS011;15488;48.114;11.532;2023-07-09T04:21:01;6.50;;;3.97;;
15679;SDS011;15488;48.114;11.532;2023-07-09T04:23:29;5.20;;;3.90;;
15679;SDS011;15488;48.114;11.532;2023-07-09T04:25:56;5.07;;;3.97;;
15679;SDS011;15488;48.114;11.532;2023-07-09T04:28:28;4.77;;;3.90;;
15679;SDS011;15488;48.114;11.532;2023-07-09T04:30:57;5.30;;;4.00;;
15679;SDS011;15488;48.114;11.532;2023-07-09T04:33:25;4.87;;;3.97;;
15679;SDS011;15488;48.114;11.532;2023-07-09T04:35:52;5.47;;;4.00;;
15679;SDS011;15488;48.114;11.532;2023-07-09T04:38:20;5.67;;;3.80;;
15679;SDS011;15488;48.114;11.532;2023-07-09T04:40:47;4.80;;;4.20;;
15679;SDS011;15488;48.114;11.532;2023-07-09T04:43:15;5.00;;;4.27;;
15679;SDS011;15488;48.114;11.532;2023-07-09T04:45:42;5.93;;;4.47;;
15679;SDS011;15488;48.114;11.532;2023-07-09T04:48:11;5.03;;;4.00;;
15679;SDS011;15488;48.114;11.532;2023-07-09T04:50:39;4.70;;;3.90;;
15679;SDS011;15488;48.114;11.532;2023-07-09T04:53:06;5.50;;;3.97;;
15679;SDS011;15488;48.114;11.532;2023-07-09T04:55:34;5.90;;;4.43;;
15679;SDS011;15488;48.114;11.532;2023-07-09T04:58:01;5.63;;;4.17;;
15679;SDS011;15488;48.114;11.532;2023-07-09T05:00:28;5.70;;;3.80;;
15679;SDS011;15488;48.114;11.532;2023-07-09T05:02:56;4.63;;;3.83;;
15679;SDS011;15488;48.114;11.532;2023-07-09T05:05:25;5.87;;;4.30;;
15679;SDS011;15488;48.114;11.532;2023-07-09T05:07:52;4.43;;;4.03;;
15679;SDS011;15488;48.114;11.532;2023-07-09T05:10:19;6.80;;;3.70;;
15679;SDS011;15488;48.114;11.532;2023-07-09T05:12:47;5.50;;;4.07;;
15679;SDS011;15488;48.114;11.532;2023-07-09T05:15:16;4.53;;;4.13;;
15679;SDS011;15488;48.114;11.532;2023-07-09T05:17:44;7.50;;;3.87;;
15679;SDS011;15488;48.114;11.532;2023-07-09T05:20:13;4.73;;;3.90;;
15679;SDS011;15488;48.114;11.532;2023-07-09T05:22:42;6.60;;;3.90;;
15679;SDS011;15488;48.114;11.532;2023-07-09T05:25:10;5.63;;;4.00;;
15679;SDS011;15488;48.114;11.532;2023-07-09T05:27:37;5.87;;;3.90;;
15679;SDS011;15488;48.114;11.532;2023-07-09T05:30:05;4.70;;;3.83;;
15679;SDS011;15488;48.114;11.532;2023-07-09T05:32:33;4.63;;;3.63;;
15679;SDS011;15488;48.114;11.532;2023-07-09T05:35:02;7.93;;;4.33;;
15679;SDS011;15488;48.114;11.532;2023-07-09T05:37:30;4.10;;;3.60;;
15679;SDS011;15488;48.114;11.532;2023-07-09T05:39:59;4.27;;;3.70;;
15679;SDS011;15488;48.114;11.532;2023-07-09T05:42:27;5.50;;;4.03;;
15679;SDS011;15488;48.114;11.532;2023-07-09T05:44:54;6.40;;;3.67;;
15679;SDS011;15488;48.114;11.532;2023-07-09T05:47:22;4.23;;;3.60;;
15679;SDS011;15488;48.114;11.532;2023-07-09T05:49:49;4.40;;;4.00;;
15679;SDS011;15488;48.114;11.532;2023-07-09T05:52:17;4.37;;;3.97;;
15679;SDS011;15488;48.114;11.532;2023-07-09T05:54:45;5.60;;;3.70;;
15679;SDS011;15488;48.114;11.532;2023-07-09T05:57:16;4.03;;;3.40;;
15679;SDS011;15488;48.114;11.532;2023-07-09T05:59:43;3.73;;;3.30;;
15679;SDS011;15488;48.114;11.532;2023-07-09T06:02:11;4.60;;;3.73;;
15679;SDS011;15488;48.114;11.532;2023-07-09T06:04:40;4.97;;;3.73;;
15679;SDS011;15488;48.114;11.532;2023-07-09T06:07:07;4.13;;;3.60;;
15679;SDS011;15488;48.114;11.532;2023-07-09T06:09:35;5.20;;;3.60;;
15679;SDS011;15488;48.114;11.532;2023-07-09T06:12:03;4.23;;;3.50;;
15679;SDS011;15488;48.114;11.532;2023-07-09T06:14:33;4.43;;;4.00;;
15679;SDS011;15488;48.114;11.532;2023-07-09T06:17:00;3.93;;;3.53;;
15679;SDS011;15488;48.114;11.532;2023-07-09T06:19:28;3.90;;;3.40;;
15679;SDS011;15488;48.114;11.532;2023-07-09T06:21:56;5.30;;;3.63;;
15679;SDS011;15488;48.114;11.532;2023-07-09T06:24:23;4.03;;;3.43;;
15679;SDS011;15488;48.114;11.532;2023-07-09T06:26:51;5.60;;;3.73;;
15679;SDS011;15488;48.114;11.532;2023-07-09T06:29:18;5.00;;;3.50;;
15679;SDS011;15488;48.114;11.532;2023-07-09T06:31:47;4.67;;;3.33;;
15679;SDS011;15488;48.114;11.532;2023-07-09T06:34:14;3.83;;;3.20;;
15679;SDS011;15488;48.114;11.532;2023-07-09T06:36:42;4.00;;;3.13;;
15679;SDS011;15488;48.114;11.532;2023-07-09T06:39:09;6.10;;;3.23;;
15679;SDS011;15488;48.114;11.532;2023-07-09T06:41:37;5.73;;;3.30;;
15679;SDS011;15488;48.114;11.532;2023-07-09T06:44:05;4.97;;;3.30;;
15679;SDS011;15488;48.114;11.532;2023-07-09T06:46:33;3.90;;;3.47;;
15679;SDS011;15488;48.114;11.532;2023-07-09T06:49:02;3.73;;;3.27;;
15679;SDS011;15488;48.114;11.532;2023-07-09T06:51:30;4.40;;;3.03;;
15679;SDS011;15488;48.114;11.532;2023-07-09T06:53:58;4.18;;;3.50;;
15679;SDS011;15488;48.114;11.532;2023-07-09T06:56:25;4.57;;;3.53;;
15679;SDS011;15488;48.114;11.532;2023-07-09T06:58:53;5.07;;;3.45;;
15679;SDS011;15488;48.114;11.532;2023-07-09T07:01:21;4.53;;;3.70;;
15679;SDS011;15488;48.114;11.532;2023-07-09T07:03:48;3.73;;;3.30;;
15679;SDS011;15488;48.114;11.532;2023-07-09T07:06:17;5.77;;;3.60;;
15679;SDS011;15488;48.114;11.532;2023-07-09T07:08:45;5.00;;;3.70;;
15679;SDS011;15488;48.114;11.532;2023-07-09T07:11:12;3.83;;;3.53;;
15679;SDS011;15488;48.114;11.532;2023-07-09T07:13:40;5.07;;;4.00;;
15679;SDS011;15488;48.114;11.532;2023-07-09T07:16:09;4.57;;;3.70;;
15679;SDS011;15488;48.114;11.532;2023-07-09T07:18:38;4.60;;;3.17;;
15679;SDS011;15488;48.114;11.532;2023-07-09T07:21:06;4.30;;;3.67;;
15679;SDS011;15488;48.114;11.532;2023-07-09T07:23:34;4.88;;;3.60;;
15679;SDS011;15488;48.114;11.532;2023-07-09T07:26:02;3.92;;;3.30;;
15679;SDS011;15488;48.114;11.532;2023-07-09T07:28:30;5.38;;;3.50;;
15679;SDS011;15488;48.114;11.532;2023-07-09T07:30:57;4.28;;;3.63;;
15679;SDS011;15488;48.114;11.532;2023-07-09T07:33:26;5.68;;;3.38;;
15679;SDS011;15488;48.114;11.532;2023-07-09T07:35:53;3.90;;;3.50;;
15679;SDS011;15488;48.114;11.532;2023-07-09T07:38:20;3.80;;;3.40;;
15679;SDS011;15488;48.114;11.532;2023-07-09T07:40:49;5.10;;;4.03;;
15679;SDS011;15488;48.114;11.532;2023-07-09T07:43:17;4.30;;;3.90;;
15679;SDS011;15488;48.114;11.532;2023-07-09T07:45:44;5.25;;;3.85;;
15679;SDS011;15488;48.114;11.532;2023-07-09T07:48:13;5.07;;;4.45;;
15679;SDS011;15488;48.114;11.532;2023-07-09T07:50:41;5.18;;;4.15;;
15679;SDS011;15488;48.114;11.532;2023-07-09T07:53:11;4.30;;;3.90;;
15679;SDS011;15488;48.114;11.532;2023-07-09T07:55:38;4.10;;;3.45;;
15679;SDS011;15488;48.114;11.532;2023-07-09T07:58:08;4.03;;;3.60;;
15679;SDS011;15488;48.114;11.532;2023-07-09T08:00:37;5.28;;;3.78;;
15679;SDS011;15488;48.114;11.532;2023-07-09T08:03:05;3.78;;;3.30;;
15679;SDS011;15488;48.114;11.532;2023-07-09T08:05:32;4.32;;;3.78;;
15679;SDS011;15488;48.114;11.532;2023-07-09T08:08:00;4.32;;;3.67;;
15679;SDS011;15488;48.114;11.532;2023-07-09T08:10:27;6.07;;;3.85;;
15679;SDS011;15488;48.114;11.532;2023-07-09T08:12:55;3.95;;;3.65;;
15679;SDS011;15488;48.114;11.532;2023-07-09T08:15:24;4.05;;;3.15;;
15679;SDS011;15488;48.114;11.532;2023-07-09T08:17:52;4.22;;;3.70;;
15679;SDS011;15488;48.114;11.532;2023-07-09T08:20:19;5.38;;;4.03;;
15679;SDS011;15488;48.114;11.532;2023-07-09T08:22:47;4.47;;;3.45;;
15679;SDS011;15488;48.114;11.532;2023-07-09T08:25:14;5.65;;;3.80;;
15679;SDS011;15488;48.114;11.532;2023-07-09T08:27:42;3.63;;;3.20;;
15679;SDS011;15488;48.114;11.532;2023-07-09T08:30:10;3.92;;;3.50;;
15679;SDS011;15488;48.114;11.532;2023-07-09T08:32:39;3.88;;;3.47;;
15679;SDS011;15488;48.114;11.532;2023-07-09T08:35:07;4.68;;;3.60;;
15679;SDS011;15488;48.114;11.532;2023-07-09T08:37:37;4.93;;;3.67;;
15679;SDS011;15488;48.114;11.532;2023-07-09T08:40:05;5.03;;;3.30;;
15679;SDS011;15488;48.114;11.532;2023-07-09T08:42:36;4.75;;;3.63;;
15679;SDS011;15488;48.114;11.532;2023-07-09T08:45:12;11.85;;;5.55;;
15679;SDS011;15488;48.114;11.532;2023-07-09T08:47:54;5.93;;;5.30;;
15679;SDS011;15488;48.114;11.532;2023-07-09T08:50:35;5.10;;;3.90;;
15679;SDS011;15488;48.114;11.532;2023-07-09T08:53:04;4.13;;;3.38;;
15679;SDS011;15488;48.114;11.532;2023-07-09T08:55:39;6.40;;;4.60;;
15679;SDS011;15488;48.114;11.532;2023-07-09T08:58:11;5.15;;;3.53;;
15679;SDS011;15488;48.114;11.532;2023-07-09T09:00:51;4.57;;;3.33;;
15679;SDS011;15488;48.114;11.532;2023-07-09T09:03:26;4.00;;;3.22;;
15679;SDS011;15488;48.114;11.532;2023-07-09T09:05:59;6.13;;;3.40;;
15679;SDS011;15488;48.114;11.532;2023-07-09T09:08:30;4.38;;;3.30;;
15679;SDS011;15488;48.114;11.532;2023-07-09T09:11:07;5.00;;;3.05;;
15679;SDS011;15488;48.114;11.532;2023-07-09T09:13:41;4.97;;;3.25;;
15679;SDS011;15488;48.114;11.532;2023-07-09T09:16:11;3.60;;;3.28;;
15679;SDS011;15488;48.114;11.532;2023-07-09T09:18:49;5.35;;;4.65;;
15679;SDS011;15488;48.114;11.532;2023-07-09T09:21:21;5.25;;;3.70;;
15679;SDS011;15488;48.114;11.532;2023-07-09T09:23:52;4.35;;;3.53;;
15679;SDS011;15488;48.114;11.532;2023-07-09T09:26:24;4.60;;;3.30;;
15679;SDS011;15488;48.114;11.532;2023-07-09T09:28:55;5.53;;;3.90;;
15679;SDS011;15488;48.114;11.532;2023-07-09T09:31:24;4.78;;;3.88;;
15679;SDS011;15488;48.114;11.532;2023-07-09T09:33:55;4.57;;;3.90;;
15679;SDS011;15488;48.114;11.532;2023-07-09T09:36:23;4.10;;;3.22;;
15679;SDS011;15488;48.114;11.532;2023-07-09T09:38:52;4.57;;;3.35;;
15679;SDS011;15488;48.114;11.532;2023-07-09T09:41:21;8.45;;;3.75;;
15679;SDS011;15488;48.114;11.532;2023-07-09T09:43:51;4.13;;;3.35;;
15679;SDS011;15488;48.114;11.532;2023-07-09T09:46:20;6.57;;;3.72;;
15679;SDS011;15488;48.114;11.532;2023-07-09T09:48:53;3.85;;;3.30;;
15679;SDS011;15488;48.114;11.532;2023-07-09T09:51:25;5.00;;;3.60;;
15679;SDS011;15488;48.114;11.532;2023-07-09T09:53:55;5.55;;;3.65;;
15679;SDS011;15488;48.114;11.532;2023-07-09T09:56:27;4.07;;;3.40;;
15679;SDS011;15488;48.114;11.532;2023-07-09T09:58:57;4.65;;;3.53;;
15679;SDS011;15488;48.114;11.532;2023-07-09T10:01:26;5.85;;;5.00;;
15679;SDS011;15488;48.114;11.532;2023-07-09T10:03:58;6.07;;;4.22;;
15679;SDS011;15488;48.114;11.532;2023-07-09T10:06:33;4.47;;;3.65;;
15679;SDS011;15488;48.114;11.532;2023-07-09T10:09:04;5.05;;;3.20;;
15679;SDS011;15488;48.114;11.532;2023-07-09T10:11:44;3.65;;;2.90;;
15679;SDS011;15488;48.114;11.532;2023-07-09T10:17:03;4.55;;;3.40;;
15679;SDS011;15488;48.114;11.532;2023-07-09T10:19:42;4.75;;;3.90;;
15679;SDS011;15488;48.114;11.532;2023-07-09T10:22:16;5.03;;;3.70;;
15679;SDS011;15488;48.114;11.532;2023-07-09T10:24:55;4.05;;;3.55;;
15679;SDS011;15488;48.114;11.532;2023-07-09T10:27:30;4.13;;;3.15;;
15679;SDS011;15488;48.114;11.532;2023-07-09T10:32:54;5.45;;;3.20;;
15679;SDS011;15488;48.114;11.532;2023-07-09T10:35:35;4.85;;;3.65;;
15679;SDS011;15488;48.114;11.532;2023-07-09T10:38:12;4.03;;;3.35;;
15679;SDS011;15488;48.114;11.532;2023-07-09T10:40:48;4.18;;;3.35;;
15679;SDS011;15488;48.114;11.532;2023-07-09T10:43:19;4.28;;;3.47;;
15679;SDS011;15488;48.114;11.532;2023-07-09T10:45:59;8.18;;;3.60;;
15679;SDS011;15488;48.114;11.532;2023-07-09T10:48:33;5.70;;;4.07;;
15679;SDS011;15488;48.114;11.532;2023-07-09T10:51:04;4.78;;;3.90;;
15679;SDS011;15488;48.114;11.532;2023-07-09T10:53:43;6.28;;;3.80;;
15679;SDS011;15488;48.114;11.532;2023-07-09T10:56:14;5.32;;;3.35;;
15679;SDS011;15488;48.114;11.532;2023-07-09T10:58:46;4.25;;;3.50;;
15679;SDS011;15488;48.114;11.532;2023-07-09T11:01:21;7.78;;;5.22;;
15679;SDS011;15488;48.114;11.532;2023-07-09T11:03:56;7.38;;;4.90;;
15679;SDS011;15488;48.114;11.532;2023-07-09T11:06:31;4.70;;;3.50;;
15679;SDS011;15488;48.114;11.532;2023-07-09T11:09:03;3.78;;;3.03;;
15679;SDS011;15488;48.114;11.532;2023-07-09T11:11:38;3.33;;;3.08;;
15679;SDS011;15488;48.114;11.532;2023-07-09T11:14:24;5.55;;;5.05;;
15679;SDS011;15488;48.114;11.532;2023-07-09T11:16:55;5.50;;;4.85;;
15679;SDS011;15488;48.114;11.532;2023-07-09T11:19:25;6.35;;;5.60;;
15679;SDS011;15488;48.114;11.532;2023-07-09T11:21:59;4.63;;;3.90;;
15679;SDS011;15488;48.114;11.532;2023-07-09T11:24:36;4.30;;;3.90;;
15679;SDS011;15488;48.114;11.532;2023-07-09T11:27:16;4.35;;;3.95;;
15679;SDS011;15488;48.114;11.532;2023-07-09T11:29:55;5.32;;;4.15;;
15679;SDS011;15488;48.114;11.532;2023-07-09T11:32:25;9.90;;;4.32;;
15679;SDS011;15488;48.114;11.532;2023-07-09T11:34:53;4.10;;;3.70;;
15679;SDS011;15488;48.114;11.532;2023-07-09T11:37:43;4.30;;;3.83;;
15679;SDS011;15488;48.114;11.532;2023-07-09T11:40:12;3.85;;;3.53;;
15679;SDS011;15488;48.114;11.532;2023-07-09T11:42:48;4.13;;;3.72;;
15679;SDS011;15488;48.114;11.532;2023-07-09T11:45:19;4.65;;;3.80;;
15679;SDS011;15488;48.114;11.532;2023-07-09T11:47:51;4.10;;;3.70;;
15679;SDS011;15488;48.114;11.532;2023-07-09T11:50:26;4.38;;;3.97;;
15679;SDS011;15488;48.114;11.532;2023-07-09T11:52:57;6.00;;;3.90;;
15679;SDS011;15488;48.114;11.532;2023-07-09T11:55:28;4.63;;;3.60;;
15679;SDS011;15488;48.114;11.532;2023-07-09T11:58:01;4.80;;;3.78;;
15679;SDS011;15488;48.114;11.532;2023-07-09T12:00:30;4.00;;;3.60;;
15679;SDS011;15488;48.114;11.532;2023-07-09T12:03:05;7.25;;;4.35;;
15679;SDS011;15488;48.114;11.532;2023-07-09T12:05:36;5.32;;;3.90;;
15679;SDS011;15488;48.114;11.532;2023-07-09T12:08:05;4.28;;;3.72;;
15679;SDS011;15488;48.114;11.532;2023-07-09T12:10:34;9.13;;;7.43;;
15679;SDS011;15488;48.114;11.532;2023-07-09T12:13:02;7.97;;;7.28;;
15679;SDS011;15488;48.114;11.532;2023-07-09T12:15:30;4.97;;;4.40;;
15679;SDS011;15488;48.114;11.532;2023-07-09T12:17:58;4.97;;;4.50;;
15679;SDS011;15488;48.114;11.532;2023-07-09T12:20:29;4.50;;;4.10;;
15679;SDS011;15488;48.114;11.532;2023-07-09T12:22:57;4.20;;;3.80;;
15679;SDS011;15488;48.114;11.532;2023-07-09T12:25:27;4.78;;;3.63;;
15679;SDS011;15488;48.114;11.532;2023-07-09T12:27:57;4.40;;;4.00;;
15679;SDS011;15488;48.114;11.532;2023-07-09T12:30:24;4.70;;;3.85;;
15679;SDS011;15488;48.114;11.532;2023-07-09T12:32:53;5.18;;;4.30;;
15679;SDS011;15488;48.114;11.532;2023-07-09T12:35:20;4.95;;;4.30;;
15679;SDS011;15488;48.114;11.532;2023-07-09T12:37:48;3.92;;;3.63;;
15679;SDS011;15488;48.114;11.532;2023-07-09T12:40:20;5.05;;;3.80;;
15679;SDS011;15488;48.114;11.532;2023-07-09T12:42:51;4.60;;;4.20;;
15679;SDS011;15488;48.114;11.532;2023-07-09T12:45:20;6.20;;;3.97;;
15679;SDS011;15488;48.114;11.532;2023-07-09T12:47:48;4.78;;;4.38;;
15679;SDS011;15488;48.114;11.532;2023-07-09T12:50:27;5.93;;;4.80;;
15679;SDS011;15488;48.114;11.532;2023-07-09T12:53:00;4.50;;;4.10;;
15679;SDS011;15488;48.114;11.532;2023-07-09T12:55:29;5.10;;;4.60;;
15679;SDS011;15488;48.114;11.532;2023-07-09T12:58:07;4.50;;;4.10;;
15679;SDS011;15488;48.114;11.532;2023-07-09T13:00:37;4.15;;;3.83;;
15679;SDS011;15488;48.114;11.532;2023-07-09T13:03:08;5.47;;;4.97;;
15679;SDS011;15488;48.114;11.532;2023-07-09T13:05:39;4.85;;;4.35;;
15679;SDS011;15488;48.114;11.532;2023-07-09T13:08:18;4.88;;;4.20;;
15679;SDS011;15488;48.114;11.532;2023-07-09T13:10:46;5.55;;;4.10;;
15679;SDS011;15488;48.114;11.532;2023-07-09T13:13:18;4.38;;;3.97;;
15679;SDS011;15488;48.114;11.532;2023-07-09T13:15:48;4.45;;;4.05;;
15679;SDS011;15488;48.114;11.532;2023-07-09T13:18:21;4.75;;;4.32;;
15679;SDS011;15488;48.114;11.532;2023-07-09T13:20:49;5.70;;;4.53;;
15679;SDS011;15488;48.114;11.532;2023-07-09T13:23:19;4.70;;;4.30;;
15679;SDS011;15488;48.114;11.532;2023-07-09T13:25:47;4.95;;;4.45;;
15679;SDS011;15488;48.114;11.532;2023-07-09T13:28:19;5.72;;;4.50;;
15679;SDS011;15488;48.114;11.532;2023-07-09T13:30:51;4.85;;;4.40;;
15679;SDS011;15488;48.114;11.532;2023-07-09T13:33:22;4.82;;;4.43;;
15679;SDS011;15488;48.114;11.532;2023-07-09T13:35:50;6.10;;;4.43;;
15679;SDS011;15488;48.114;11.532;2023-07-09T13:38:20;6.53;;;5.90;;
15679;SDS011;15488;48.114;11.532;2023-07-09T13:40:49;5.35;;;4.90;;
15679;SDS011;15488;48.114;11.532;2023-07-09T13:43:23;6.15;;;5.65;;
15679;SDS011;15488;48.114;11.532;2023-07-09T13:45:54;6.88;;;6.28;;
15679;SDS011;15488;48.114;11.532;2023-07-09T13:48:22;6.53;;;5.93;;
15679;SDS011;15488;48.114;11.532;2023-07-09T13:50:51;5.57;;;5.18;;
15679;SDS011;15488;48.114;11.532;2023-07-09T13:53:21;7.63;;;7.03;;
15679;SDS011;15488;48.114;11.532;2023-07-09T13:55:50;8.38;;;7.78;;
15679;SDS011;15488;48.114;11.532;2023-07-09T13:58:18;8.35;;;7.75;;
15679;SDS011;15488;48.114;11.532;2023-07-09T14:00:49;7.88;;;7.32;;
15679;SDS011;15488;48.114;11.532;2023-07-09T14:03:22;8.73;;;8.00;;
15679;SDS011;15488;48.114;11.532;2023-07-09T14:05:51;7.05;;;6.57;;
15679;SDS011;15488;48.114;11.532;2023-07-09T14:08:19;5.55;;;5.18;;
15679;SDS011;15488;48.114;11.532;2023-07-09T14:10:47;6.00;;;5.32;;
15679;SDS011;15488;48.114;11.532;2023-07-09T14:13:16;6.70;;;6.10;;
15679;SDS011;15488;48.114;11.532;2023-07-09T14:15:45;6.07;;;5.55;;
15679;SDS011;15488;48.114;11.532;2023-07-09T14:18:15;5.22;;;4.63;;
15679;SDS011;15488;48.114;11.532;2023-07-09T14:20:44;6.05;;;5.55;;
15679;SDS011;15488;48.114;11.532;2023-07-09T14:23:12;6.82;;;6.30;;
15679;SDS011;15488;48.114;11.532;2023-07-09T14:25:41;7.30;;;6.70;;
15679;SDS011;15488;48.114;11.532;2023-07-09T14:28:10;7.10;;;6.45;;
15679;SDS011;15488;48.114;11.532;2023-07-09T14:30:39;6.90;;;6.40;;
15679;SDS011;15488;48.114;11.532;2023-07-09T14:33:09;7.03;;;6.63;;
15679;SDS011;15488;48.114;11.532;2023-07-09T14:35:41;7.75;;;7.05;;
15679;SDS011;15488;48.114;11.532;2023-07-09T14:40:42;7.93;;;7.32;;
15679;SDS011;15488;48.114;11.532;2023-07-09T14:43:10;7.30;;;6.50;;
15679;SDS011;15488;48.114;11.532;2023-07-09T14:45:41;7.03;;;6.50;;
15679;SDS011;15488;48.114;11.532;2023-07-09T14:48:09;7.07;;;6.47;;
15679;SDS011;15488;48.114;11.532;2023-07-09T14:50:39;7.15;;;6.65;;
15679;SDS011;15488;48.114;11.532;2023-07-09T14:53:11;6.60;;;6.10;;
15679;SDS011;15488;48.114;11.532;2023-07-09T14:55:41;6.32;;;5.40;;